createdAt,value
2019-04-06T04:32:39.005Z,99.90
2019-04-06T04:35:08.220Z,99.90
2019-04-06T04:37:37.467Z,99.90
2019-04-06T04:40:07.931Z,99.90
2019-04-06T04:42:37.462Z,99.90
2019-04-06T04:45:07.265Z,99.90
2019-04-06T04:47:36.297Z,99.90
2019-04-06T04:50:06.878Z,99.90
2019-04-06T04:52:35.852Z,99.90
2019-04-06T04:55:05.418Z,99.90
2019-04-06T04:57:40.014Z,99.90
2019-04-06T05:00:06.481Z,99.90
2019-04-06T05:02:35.656Z,99.90
2019-04-06T05:05:05.167Z,99.90
2019-04-06T05:07:34.214Z,99.90
2019-04-06T05:10:03.310Z,99.90
2019-04-06T05:12:32.240Z,99.90
2019-04-06T05:15:03.463Z,99.90
2019-04-06T05:17:32.696Z,99.90
2019-04-06T05:20:01.885Z,99.90
2019-04-06T05:22:31.071Z,99.90
2019-04-06T05:25:00.248Z,99.90
2019-04-06T05:27:30.485Z,99.90
2019-04-06T05:29:59.962Z,99.90
2019-04-06T05:32:29.222Z,99.90
2019-04-06T05:34:58.721Z,99.90
2019-04-06T05:37:28.217Z,99.90
2019-04-06T05:39:57.861Z,99.90
2019-04-06T05:42:27.133Z,99.90
2019-04-06T05:44:56.900Z,99.90
2019-04-06T05:47:26.269Z,99.90
2019-04-06T05:49:55.261Z,99.90
2019-04-06T05:52:24.352Z,99.90
2019-04-06T05:54:53.510Z,99.90
2019-04-06T05:57:22.714Z,99.90
2019-04-06T05:59:51.831Z,99.90
2019-04-06T06:02:21.298Z,99.90
2019-04-06T06:04:50.662Z,99.90
2019-04-06T06:07:20.220Z,99.90
2019-04-06T06:09:49.453Z,99.90
2019-04-06T06:12:19.539Z,99.90
2019-04-06T06:14:48.922Z,99.90
2019-04-06T06:17:17.945Z,99.90
2019-04-06T06:19:48.388Z,99.90
2019-04-06T06:22:19.886Z,99.90
2019-04-06T06:24:49.354Z,99.90
2019-04-06T06:27:18.374Z,99.90
2019-04-06T06:29:49.114Z,99.90
2019-04-06T06:32:18.660Z,99.90
2019-04-06T06:34:48.759Z,99.90
2019-04-06T06:37:18.022Z,99.90
2019-04-06T06:39:47.167Z,99.90
2019-04-06T06:42:16.189Z,99.90
2019-04-06T06:44:46.143Z,99.90
2019-04-06T06:47:16.702Z,99.90
2019-04-06T06:49:47.080Z,99.90
2019-04-06T06:52:16.401Z,99.90
2019-04-06T06:54:45.543Z,99.90
2019-04-06T06:57:14.999Z,99.90
2019-04-06T06:59:46.170Z,99.90
2019-04-06T07:02:16.145Z,99.90
2019-04-06T07:04:45.100Z,99.90
2019-04-06T07:07:14.526Z,99.90
2019-04-06T07:09:44.022Z,99.90
2019-04-06T07:12:13.299Z,99.90
2019-04-06T07:14:42.444Z,99.90
2019-04-06T07:17:11.400Z,99.90
2019-04-06T07:19:40.482Z,99.90
2019-04-06T07:22:09.509Z,99.90
2019-04-06T07:24:39.125Z,99.90
2019-04-06T07:27:09.635Z,99.90
2019-04-06T07:29:39.253Z,99.90
2019-04-06T07:32:08.330Z,99.90
2019-04-06T07:34:37.354Z,99.90
2019-04-06T07:37:06.368Z,99.90
2019-04-06T07:39:35.884Z,99.90
2019-04-06T07:42:05.148Z,99.90
2019-04-06T07:44:34.623Z,99.90
2019-04-06T07:47:05.262Z,99.90
2019-04-06T07:49:34.769Z,99.90
2019-04-06T07:52:04.653Z,99.90
2019-04-06T07:54:36.010Z,99.90
2019-04-06T07:57:05.741Z,99.90
2019-04-06T07:59:35.753Z,99.90
2019-04-06T08:02:05.096Z,99.90
2019-04-06T08:04:34.354Z,99.90
2019-04-06T08:07:03.494Z,99.90
2019-04-06T08:09:32.557Z,99.90
2019-04-06T08:12:01.846Z,99.90
2019-04-06T08:14:30.884Z,99.90
2019-04-06T08:16:59.898Z,99.90
2019-04-06T08:19:29.015Z,99.90
2019-04-06T08:21:58.103Z,99.90
2019-04-06T08:24:27.097Z,99.90
2019-04-06T08:26:56.143Z,99.90
2019-04-06T08:29:25.144Z,99.90
2019-04-06T08:31:54.247Z,99.90
2019-04-06T08:34:23.309Z,99.90
2019-04-06T08:36:52.410Z,99.90
2019-04-06T08:39:21.446Z,99.90
2019-04-06T08:41:50.518Z,99.90
2019-04-06T08:44:19.651Z,99.90
2019-04-06T08:46:48.740Z,99.90
2019-04-06T08:49:18.062Z,99.90
2019-04-06T08:51:47.308Z,99.90
2019-04-06T08:54:16.459Z,99.90
2019-04-06T08:56:45.591Z,99.90
2019-04-06T08:59:14.642Z,99.90
2019-04-06T09:01:43.634Z,99.90
2019-04-06T09:04:12.746Z,99.80
2019-04-06T09:06:41.790Z,98.30
2019-04-06T09:09:10.923Z,99.10
2019-04-06T09:11:39.947Z,98.90
2019-04-06T09:14:08.887Z,99.90
2019-04-06T09:16:37.980Z,97.40
2019-04-06T09:19:06.903Z,96.00
2019-04-06T09:21:35.902Z,95.20
2019-04-06T09:24:04.958Z,94.80
2019-04-06T09:26:33.970Z,95.70
2019-04-06T09:29:03.134Z,95.60
2019-04-06T09:31:32.309Z,93.10
2019-04-06T09:34:01.514Z,93.30
2019-04-06T09:36:30.508Z,92.10
2019-04-06T09:38:59.580Z,92.60
2019-04-06T09:41:28.827Z,93.40
2019-04-06T09:43:57.822Z,94.80
2019-04-06T09:46:51.849Z,92.70
2019-04-06T09:49:38.400Z,91.10
2019-04-06T09:52:44.686Z,91.70
2019-04-06T09:55:26.379Z,91.40
2019-04-06T09:58:11.500Z,92.20
2019-04-06T10:00:59.565Z,90.60
2019-04-06T10:03:44.262Z,88.00
2019-04-06T10:06:21.808Z,90.30
2019-04-06T10:09:13.034Z,90.00
2019-04-06T10:11:56.228Z,91.00
2019-04-06T10:14:33.030Z,88.40
2019-04-06T10:17:30.010Z,86.70
2019-04-06T10:20:10.634Z,88.00
2019-04-06T10:22:59.396Z,85.30
2019-04-06T10:25:52.970Z,86.80
2019-04-06T10:28:40.066Z,83.70
2019-04-06T10:31:40.223Z,81.20
2019-04-06T10:34:28.476Z,78.80
2019-04-06T10:37:15.537Z,79.60
2019-04-06T10:39:52.695Z,81.10
2019-04-06T10:42:46.931Z,84.80
2019-04-06T10:45:32.627Z,87.50
2019-04-06T10:48:23.712Z,90.20
2019-04-06T10:51:00.757Z,81.60
2019-04-06T10:53:51.656Z,79.90
2019-04-06T10:56:34.347Z,80.20
2019-04-06T10:59:22.566Z,80.80
2019-04-06T11:02:09.447Z,85.70
2019-04-06T11:04:49.554Z,88.20
2019-04-06T11:07:30.272Z,90.40
2019-04-06T11:10:18.857Z,88.30
2019-04-06T11:13:03.284Z,87.70
2019-04-06T11:15:58.045Z,85.00
2019-04-06T11:18:44.927Z,82.50
2019-04-06T11:21:27.207Z,79.60
2019-04-06T11:24:18.407Z,80.80
2019-04-06T11:27:06.941Z,78.00
2019-04-06T11:29:55.251Z,75.70
2019-04-06T11:32:33.556Z,73.50
2019-04-06T11:35:13.067Z,73.50
2019-04-06T11:37:59.811Z,71.70
2019-04-06T11:40:39.026Z,68.50
2019-04-06T11:43:39.313Z,68.30
2019-04-06T11:46:22.277Z,70.40
2019-04-06T11:48:57.643Z,67.50
2019-04-06T11:51:33.450Z,68.60
2019-04-06T11:54:21.095Z,68.50
2019-04-06T11:57:10.177Z,70.40
2019-04-06T11:59:52.319Z,69.60
2019-04-06T12:02:38.765Z,74.40
2019-04-06T12:05:15.287Z,71.90
2019-04-06T12:08:03.345Z,70.80
2019-04-06T12:10:54.495Z,69.00
2019-04-06T12:13:51.805Z,67.50
2019-04-06T12:16:42.546Z,67.00
2019-04-06T12:19:32.918Z,67.80
2019-04-06T12:22:19.843Z,69.00
2019-04-06T12:25:16.914Z,68.40
2019-04-06T12:28:04.846Z,69.30
2019-04-06T12:31:01.963Z,68.90
2019-04-06T12:34:02.480Z,70.70
2019-04-06T12:36:56.407Z,68.60
2019-04-06T12:39:52.546Z,68.70
2019-04-06T12:42:25.983Z,68.40
2019-04-06T12:45:17.195Z,71.20
2019-04-06T12:48:17.427Z,69.40
2019-04-06T12:51:00.978Z,69.70
2019-04-06T12:53:58.416Z,68.00
2019-04-06T12:56:44.978Z,69.40
2019-04-06T12:59:34.719Z,66.70
2019-04-06T13:02:20.182Z,65.90
2019-04-06T13:05:06.748Z,65.00
2019-04-06T13:07:57.688Z,64.20
2019-04-06T13:10:32.910Z,64.30
2019-04-06T13:13:23.950Z,66.90
2019-04-06T13:16:21.583Z,67.10
2019-04-06T13:19:08.056Z,68.20
2019-04-06T13:21:54.791Z,69.30
2019-04-06T13:24:33.743Z,67.80
2019-04-06T13:27:25.270Z,66.00
2019-04-06T13:30:06.413Z,68.10
2019-04-06T13:33:00.608Z,68.60
2019-04-06T13:35:51.780Z,67.80
2019-04-06T13:38:40.080Z,69.20
2019-04-06T13:41:34.410Z,71.50
2019-04-06T13:44:28.590Z,71.00
2019-04-06T13:47:15.051Z,69.30
2019-04-06T13:50:15.497Z,69.10
2019-04-06T13:52:54.957Z,69.80
2019-04-06T13:55:49.043Z,69.80
2019-04-06T13:58:24.514Z,70.20
2019-04-06T14:01:17.590Z,73.10
2019-04-06T14:04:08.154Z,70.70
2019-04-06T14:07:05.422Z,70.80
2019-04-06T14:09:43.029Z,69.80
2019-04-06T14:12:49.464Z,70.30
2019-04-06T14:15:40.643Z,70.50
2019-04-06T14:18:27.245Z,67.90
2019-04-06T14:21:12.578Z,68.10
2019-04-06T14:24:03.804Z,67.60
2019-04-06T14:26:54.265Z,67.80
2019-04-06T14:29:38.493Z,66.00
2019-04-06T14:32:26.554Z,66.70
2019-04-06T14:35:02.746Z,67.10
2019-04-06T14:37:51.403Z,66.30
2019-04-06T14:40:34.551Z,67.00
2019-04-06T14:43:21.514Z,65.20
2019-04-06T14:46:09.601Z,64.60
2019-04-06T14:48:56.484Z,66.40
2019-04-06T14:51:40.870Z,67.40
2019-04-06T14:54:28.055Z,68.80
2019-04-06T14:57:12.386Z,67.40
2019-04-06T15:00:04.943Z,66.60
2019-04-06T15:02:44.125Z,68.20
2019-04-06T15:05:35.346Z,66.20
2019-04-06T15:08:35.928Z,66.60
2019-04-06T15:11:18.201Z,66.60
2019-04-06T15:14:04.983Z,66.80
2019-04-06T15:17:05.076Z,67.50
2019-04-06T15:19:41.618Z,67.50
2019-04-06T15:22:28.673Z,67.10
2019-04-06T15:25:16.877Z,67.80
2019-04-06T15:28:05.270Z,67.30
2019-04-06T15:31:08.339Z,65.90
2019-04-06T15:33:46.270Z,67.10
2019-04-06T15:36:34.102Z,67.40
2019-04-06T15:39:11.416Z,65.70
2019-04-06T15:41:57.592Z,66.10
2019-04-06T15:44:37.916Z,67.80
2019-04-06T15:47:29.937Z,69.50
2019-04-06T15:50:17.034Z,72.30
2019-04-06T15:53:03.828Z,76.10
2019-04-06T15:55:44.494Z,76.80
2019-04-06T15:58:24.901Z,77.10
2019-04-06T16:01:30.882Z,78.40
2019-04-06T16:04:21.782Z,78.90
2019-04-06T16:07:01.061Z,79.70
2019-04-06T16:09:55.427Z,79.40
2019-04-06T16:12:30.605Z,80.90
2019-04-06T16:15:37.032Z,79.80
2019-04-06T16:18:12.003Z,81.50
2019-04-06T16:21:05.759Z,82.10
2019-04-06T16:23:44.451Z,83.10
2019-04-06T16:26:23.559Z,83.90
2019-04-06T16:29:10.094Z,84.90
2019-04-06T16:32:12.515Z,84.80
2019-04-06T16:34:45.140Z,85.50
2019-04-06T16:37:20.892Z,85.70
2019-04-06T16:40:07.922Z,85.70
2019-04-06T16:42:50.927Z,86.40
2019-04-06T16:45:42.213Z,87.00
2019-04-06T16:48:33.384Z,87.60
2019-04-06T16:51:18.002Z,87.70
2019-04-06T16:53:53.457Z,87.30
2019-04-06T16:56:44.579Z,86.90
2019-04-06T16:59:31.989Z,87.80
2019-04-06T17:02:22.541Z,87.80
2019-04-06T17:04:59.651Z,86.90
2019-04-06T17:07:46.472Z,87.30
2019-04-06T17:10:40.569Z,87.30
2019-04-06T17:13:29.256Z,87.60
2019-04-06T17:16:35.410Z,88.10
2019-04-06T17:19:20.245Z,89.40
2019-04-06T17:22:14.446Z,89.80
2019-04-06T17:25:01.844Z,90.30
2019-04-06T17:27:44.505Z,90.60
2019-04-06T17:30:22.452Z,90.80
2019-04-06T17:33:17.472Z,90.90
2019-04-06T17:36:10.059Z,91.20
2019-04-06T17:39:04.063Z,91.20
2019-04-06T17:41:52.441Z,91.90
2019-04-06T17:44:39.079Z,92.00
2019-04-06T17:47:33.663Z,92.10
2019-04-06T17:50:20.803Z,92.10
2019-04-06T17:53:02.760Z,92.40
2019-04-06T17:55:50.898Z,92.90
2019-04-06T17:58:39.677Z,92.60
2019-04-06T18:01:27.766Z,92.80
2019-04-06T18:04:27.607Z,92.80
2019-04-06T18:07:12.121Z,92.80
2019-04-06T18:09:52.052Z,93.00
2019-04-06T18:12:44.093Z,93.10
2019-04-06T18:15:13.354Z,93.30
2019-04-06T18:17:42.365Z,93.40
2019-04-06T18:20:11.657Z,93.40
2019-04-06T18:22:40.619Z,93.40
2019-04-06T18:25:09.679Z,93.90
2019-04-06T18:27:38.691Z,94.10
2019-04-06T18:30:09.062Z,94.20
2019-04-06T18:32:57.096Z,94.40
2019-04-06T18:35:16.659Z,94.20
2019-04-06T18:38:00.439Z,94.40
2019-04-06T18:40:30.537Z,94.40
2019-04-06T18:42:59.831Z,94.40
2019-04-06T18:45:31.419Z,94.40
2019-04-06T18:48:01.351Z,94.80
2019-04-06T18:50:35.988Z,94.60
2019-04-06T18:53:01.242Z,94.70
2019-04-06T18:55:30.433Z,94.90
2019-04-06T18:58:08.835Z,95.00
2019-04-06T19:00:30.216Z,95.20
2019-04-06T19:03:11.206Z,95.50
2019-04-06T19:05:30.062Z,95.30
2019-04-06T19:07:59.269Z,95.40
2019-04-06T19:10:28.395Z,95.60
2019-04-06T19:12:57.590Z,95.80
2019-04-06T19:15:26.849Z,96.00
2019-04-06T19:17:56.306Z,96.20
2019-04-06T19:20:25.682Z,96.40
2019-04-06T19:22:54.833Z,96.40
2019-04-06T19:25:23.988Z,96.50
2019-04-06T19:27:53.508Z,96.90
2019-04-06T19:30:22.783Z,97.20
2019-04-06T19:32:52.307Z,97.50
2019-04-06T19:35:21.358Z,98.20
2019-04-06T19:37:50.548Z,98.70
2019-04-06T19:40:19.829Z,99.10
2019-04-06T19:42:48.924Z,99.60
2019-04-06T19:45:18.169Z,99.90
2019-04-06T19:47:47.191Z,99.90
2019-04-06T19:50:16.564Z,99.90
2019-04-06T19:52:45.832Z,99.90
2019-04-06T19:55:15.066Z,99.90
2019-04-06T19:57:44.097Z,99.90
2019-04-06T20:00:13.442Z,99.90
2019-04-06T20:02:42.491Z,99.90
2019-04-06T20:05:12.262Z,99.90
2019-04-06T20:07:42.616Z,99.90
2019-04-06T20:10:12.843Z,99.90
2019-04-06T20:12:42.508Z,99.90
2019-04-06T20:15:12.490Z,99.90
2019-04-06T20:17:41.420Z,99.90
2019-04-06T20:20:10.951Z,99.90
2019-04-06T20:22:40.125Z,99.90
2019-04-06T20:25:10.245Z,99.90
2019-04-06T20:27:39.772Z,99.90
2019-04-06T20:30:09.552Z,99.90
2019-04-06T20:32:39.155Z,99.90
2019-04-06T20:35:09.293Z,99.90
2019-04-06T20:37:38.977Z,99.90
2019-04-06T20:40:10.283Z,99.90
2019-04-06T20:42:39.617Z,99.90
2019-04-06T20:45:09.289Z,99.90
2019-04-06T20:47:40.142Z,99.90
2019-04-06T20:50:09.507Z,99.90
2019-04-06T20:52:38.562Z,99.90
2019-04-06T20:55:08.949Z,99.90
2019-04-06T20:57:38.378Z,99.90
2019-04-06T21:00:08.531Z,99.90
2019-04-06T21:02:37.705Z,99.90
2019-04-06T21:05:07.848Z,99.90
2019-04-06T21:07:37.262Z,99.90
2019-04-06T21:10:08.781Z,99.90
2019-04-06T21:12:38.579Z,99.90
2019-04-06T21:15:17.859Z,99.90
2019-04-06T21:17:40.176Z,99.90
2019-04-06T21:20:09.387Z,99.90
2019-04-06T21:22:38.594Z,99.90
2019-04-06T21:25:08.418Z,99.90
2019-04-06T21:27:37.655Z,99.90
2019-04-06T21:30:08.274Z,99.90
2019-04-06T21:32:37.319Z,99.90
2019-04-06T21:35:07.132Z,99.90
2019-04-06T21:37:36.888Z,99.90
2019-04-06T21:40:06.778Z,99.90
2019-04-06T21:42:36.487Z,99.90
2019-04-06T21:45:06.422Z,99.90
2019-04-06T21:47:35.947Z,99.90
2019-04-06T21:50:05.843Z,99.90
2019-04-06T21:52:35.269Z,99.90
2019-04-06T21:55:05.046Z,99.90
2019-04-06T21:57:34.846Z,99.90
2019-04-06T22:00:06.131Z,99.90
2019-04-06T22:02:35.469Z,99.90
2019-04-06T22:05:05.579Z,99.90
2019-04-06T22:07:47.265Z,99.90
2019-04-06T22:10:06.446Z,99.90
2019-04-06T22:12:35.574Z,99.90
2019-04-06T22:15:05.895Z,99.90
2019-04-06T22:17:35.900Z,99.90
2019-04-06T22:20:05.674Z,99.90
2019-04-06T22:22:35.403Z,99.90
2019-04-06T22:25:05.821Z,99.90
2019-04-06T22:27:34.988Z,99.90
